Loodiep — A8ZO7 — position and weather

sailwx.info

Track history (hours):
 
Tides and Currents Weather Stations Pressure Air Temp Water Temp Dewpoint Dewpoint Depression Visibility Wind Speed Wind Dir Waves Ship Positions

Loodiep

Last reported at 2017-Mar-21 10:07 UTC. Time now 2017-Mar-23 06:12 UTC.
Position N 59°59' E 026°19'.

Length 108 m; draft 7.2 m.

Type: Cargo ship. MMSI: 636015263.

Date/timePositionNaut miles runAvg speedWind from/ knotsBaromVisibWave heightAir tempDewpointWater temp
2017-Mar-21 10:07N 59°59' E 026°19'610.1
2017-Mar-21 09:33N 60°01' E 026°30'1010.2
2017-Mar-21 08:33N 60°00' E 026°51'30 9.9
2017-Mar-21 05:33N 60°12' E 027°46'1010.3
2017-Mar-21 04:33N 60°10' E 028°06'9 9.3
2017-Mar-21 03:33N 60°06' E 028°23'38 9.2
2017-Mar-20 23:28N 60°00' E 029°37'9 9.5
2017-Mar-20 22:33N 59°57' E 029°53'9 9.2
2017-Mar-20 21:33N 59°53' E 030°10'3 2.8
2017-Mar-20 20:32N 59°55' E 030°15'0 0.0
2017-Mar-20 19:32N 59°55' E 030°15'0 0.0
2017-Mar-20 18:32N 59°55' E 030°15'0 0.0
2017-Mar-20 17:32N 59°55' E 030°15'0 0.0
2017-Mar-20 16:32N 59°55' E 030°15'0 0.0
2017-Mar-20 15:32N 59°55' E 030°15'0 0.0
2017-Mar-20 14:32N 59°55' E 030°15'0 0.0
2017-Mar-20 13:32N 59°55' E 030°15'0 0.0
2017-Mar-20 12:32N 59°55' E 030°15'0 0.0
2017-Mar-20 11:32N 59°55' E 030°15'0 0.0
2017-Mar-20 10:29N 59°55' E 030°15'0 0.0
2017-Mar-20 09:32N 59°55' E 030°15'0 0.0
2017-Mar-20 08:32N 59°55' E 030°15'0 0.0
2017-Mar-20 07:32N 59°55' E 030°15'0 0.0
2017-Mar-20 06:32N 59°55' E 030°15'0 0.0
2017-Mar-20 05:32N 59°55' E 030°15'0 0.0
2017-Mar-20 04:32N 59°55' E 030°15'0 0.0
2017-Mar-20 03:32N 59°55' E 030°15'0 0.0
2017-Mar-20 02:32N 59°55' E 030°15'0 0.0
2017-Mar-20 01:32N 59°55' E 030°15'0 0.0
2017-Mar-20 00:32N 59°55' E 030°15'0 0.0
2017-Mar-19 23:32N 59°55' E 030°15'0 0.0
2017-Mar-19 22:32N 59°55' E 030°15'0 0.0
2017-Mar-19 21:32N 59°55' E 030°15'0 0.0
2017-Mar-19 20:32N 59°55' E 030°15'0 0.0
2017-Mar-19 19:32N 59°55' E 030°15'0 0.0
2017-Mar-19 18:32N 59°55' E 030°15'0 0.0
2017-Mar-19 17:32N 59°55' E 030°15'0 0.0
2017-Mar-19 16:32N 59°55' E 030°15'0 0.0
2017-Mar-19 15:32N 59°55' E 030°15'0 0.0
2017-Mar-19 14:32N 59°55' E 030°15'0 0.0
2017-Mar-19 13:32N 59°55' E 030°15'0 0.0
2017-Mar-19 12:32N 59°55' E 030°15'0 0.0
2017-Mar-19 11:32N 59°55' E 030°15'0 0.0
2017-Mar-19 10:32N 59°55' E 030°15'0 0.0
2017-Mar-19 09:32N 59°55' E 030°15'0 0.0
2017-Mar-19 08:29N 59°55' E 030°15'0 0.0
2017-Mar-19 07:32N 59°55' E 030°15'0 0.0
2017-Mar-19 06:32N 59°55' E 030°15'0 0.0
2017-Mar-19 05:32N 59°55' E 030°15'0 0.0
2017-Mar-19 04:32N 59°55' E 030°15'0 0.0
2017-Mar-19 03:32N 59°55' E 030°15'0 0.0
2017-Mar-19 02:32N 59°55' E 030°15'0 0.0
2017-Mar-19 01:32N 59°55' E 030°15'0 0.0
2017-Mar-19 00:32N 59°55' E 030°15'0 0.0
2017-Mar-18 23:32N 59°55' E 030°15'0 0.0
2017-Mar-18 22:32N 59°55' E 030°15'0 0.0
2017-Mar-18 21:32N 59°55' E 030°15'0 0.0
2017-Mar-18 20:32N 59°55' E 030°15'0 0.0
2017-Mar-18 19:32N 59°55' E 030°15'0 0.0
2017-Mar-18 18:32N 59°55' E 030°15'0 0.0
2017-Mar-18 17:32N 59°55' E 030°15'0 0.0
2017-Mar-18 16:32N 59°55' E 030°15'0 0.0
2017-Mar-18 15:32N 59°55' E 030°15'0 0.0
2017-Mar-18 14:32N 59°55' E 030°15'0 0.0
2017-Mar-18 13:32N 59°55' E 030°15'0 0.0
2017-Mar-18 12:32N 59°55' E 030°15'0 0.0
2017-Mar-18 11:32N 59°55' E 030°15'0 0.0
2017-Mar-18 10:32N 59°55' E 030°15'0 0.0
2017-Mar-18 09:32N 59°55' E 030°15'0 0.0
2017-Mar-18 08:32N 59°55' E 030°15'0 0.0
2017-Mar-18 07:32N 59°55' E 030°15'0 0.0
2017-Mar-18 06:32N 59°55' E 030°15'0 0.0
2017-Mar-18 05:32N 59°55' E 030°15'0 0.0
2017-Mar-18 04:32N 59°55' E 030°15'0 0.0
2017-Mar-18 03:32N 59°55' E 030°15'0 0.0
2017-Mar-18 02:32N 59°55' E 030°15'0 0.0
2017-Mar-18 01:32N 59°55' E 030°15'0 0.0
2017-Mar-18 00:32N 59°55' E 030°15'0 0.0
2017-Mar-17 23:32N 59°55' E 030°15'0 0.0
2017-Mar-17 22:32N 59°55' E 030°15'0 0.0
2017-Mar-17 21:32N 59°55' E 030°15'2 1.6
2017-Mar-17 20:32N 59°54' E 030°13'0 0.0
2017-Mar-17 19:32N 59°54' E 030°13'0 0.0
2017-Mar-17 18:32N 59°54' E 030°13'0 0.0
2017-Mar-17 17:32N 59°54' E 030°13'0 0.0
2017-Mar-17 16:32N 59°54' E 030°13'0 0.0
2017-Mar-17 15:32N 59°54' E 030°13'0 0.0
2017-Mar-17 14:32N 59°54' E 030°13'0 0.0
2017-Mar-17 13:32N 59°54' E 030°13'0 0.0
2017-Mar-17 12:32N 59°54' E 030°13'0 0.0
2017-Mar-17 11:26N 59°54' E 030°13'0 0.0
2017-Mar-17 10:32N 59°54' E 030°13'0 0.0
2017-Mar-17 09:32N 59°54' E 030°13'0 0.0
2017-Mar-17 08:32N 59°54' E 030°13'0 0.0
2017-Mar-17 07:32N 59°54' E 030°13'0 0.0
2017-Mar-17 06:32N 59°54' E 030°13'0 0.0
2017-Mar-17 05:32N 59°54' E 030°13'0 0.0
2017-Mar-17 04:32N 59°54' E 030°13'0 0.0
2017-Mar-17 03:32N 59°54' E 030°13'0 0.0
2017-Mar-17 02:32N 59°54' E 030°13'0 0.0
2017-Mar-17 01:32N 59°54' E 030°13'0 0.0
2017-Mar-17 00:32N 59°54' E 030°13'0 0.0
2017-Mar-16 23:32N 59°54' E 030°13'0 0.0
2017-Mar-16 22:32N 59°54' E 030°13'0 0.0
2017-Mar-16 21:29N 59°54' E 030°13'0 0.0
2017-Mar-16 20:29N 59°54' E 030°13'0 0.0
2017-Mar-16 19:32N 59°54' E 030°13'0 0.0
2017-Mar-16 18:32N 59°54' E 030°13'0 0.0
2017-Mar-16 17:32N 59°54' E 030°13'0 0.0
2017-Mar-16 16:32N 59°54' E 030°13'1 1.5
2017-Mar-16 15:33N 59°53' E 030°10'9 8.5
2017-Mar-16 14:33N 59°57' E 029°54'23 1.1
2017-Mar-15 18:10N 60°02' E 029°09'610.2
2017-Mar-15 17:33N 60°02' E 028°57'1110.7
2017-Mar-15 16:33N 60°02' E 028°35'1010.1
2017-Mar-15 15:33N 60°06' E 028°17'9 8.9
2017-Mar-15 14:34N 60°08' E 027°59'7 6.6
2017-Mar-15 13:34N 60°09' E 027°46'10 9.9
2017-Mar-15 12:33N 60°05' E 027°28'31 9.7
2017-Mar-15 09:18N 59°58' E 026°27'349 9.7
2017-Mar-13 21:33N 56°26' E 017°40'1010.3
2017-Mar-13 20:34N 56°20' E 017°26'1010.4
2017-Mar-13 19:34N 56°14' E 017°11'1010.4
2017-Mar-13 18:34N 56°07' E 016°57'1010.3
2017-Mar-13 17:33N 56°01' E 016°42'1010.2
2017-Mar-13 16:34N 55°56' E 016°26'1010.0
2017-Mar-13 15:34N 55°51' E 016°10'10 9.8
2017-Mar-13 14:34N 55°47' E 015°55'11 9.9
2017-Mar-13 13:29N 55°42' E 015°38'9 9.8
2017-Mar-13 12:34N 55°37' E 015°24'10 9.9
2017-Mar-13 11:33N 55°33' E 015°09'10 9.7
2017-Mar-13 10:34N 55°28' E 014°54'1 0.5
2017-Mar-13 09:18N 55°28' E 014°55'7 8.9
2017-Mar-13 08:33N 55°24' E 014°45'1010.4
2017-Mar-13 07:34N 55°18' E 014°31'1010.3
2017-Mar-13 06:33N 55°10' E 014°20'1110.6
2017-Mar-13 05:33N 55°01' E 014°08'1010.1
2017-Mar-13 04:33N 54°58' E 013°51'1010.2
2017-Mar-13 03:32N 54°55' E 013°34'1010.2
2017-Mar-13 02:33N 54°52' E 013°18'2010.1
2017-Mar-13 00:33N 54°45' E 012°44'10 9.9
2017-Mar-12 23:33N 54°40' E 012°30'9 9.4
2017-Mar-12 22:33N 54°34' E 012°18'9 9.5
2017-Mar-12 21:33N 54°25' E 012°10'9 8.6
2017-Mar-12 20:33N 54°24' E 011°56'12 8.9
2017-Mar-12 19:16N 54°27' E 011°36'6 9.2
2017-Mar-12 18:33N 54°30' E 011°26'8 8.4
2017-Mar-12 17:33N 54°34' E 011°13'11 8.5
2017-Mar-12 16:17N 54°35' E 010°55'7 9.5
2017-Mar-12 15:33N 54°34' E 010°43'11 9.5
2017-Mar-12 14:27N 54°31' E 010°25'49 6.2
2017-Mar-12 06:33N 54°02' E 009°18'8 7.6
2017-Mar-12 05:33N 53°55' E 009°12'3 2.7
2017-Mar-12 04:33N 53°54' E 009°09'2 1.8
2017-Mar-12 03:33N 53°53' E 009°06'5 5.0
2017-Mar-12 02:33N 53°51' E 008°58'9 8.7
2017-Mar-12 01:33N 53°52' E 008°44'9 8.8
2017-Mar-12 00:33N 53°58' E 008°33'9 9.5
2017-Mar-11 23:33N 53°60' E 008°17'9 9.1
2017-Mar-11 22:31N 53°58' E 008°01'9410.4
2017-Mar-11 13:33N 53°34' E 005°28'9 8.7
2017-Mar-11 12:33N 53°32' E 005°14'9 8.8
2017-Mar-11 11:32N 53°28' E 004°60'9 9.3
2017-Mar-11 10:33N 53°25' E 004°46'  
Track history (hours):
 
Tides and Currents Weather Stations Pressure Air Temp Water Temp Dewpoint Dewpoint Depression Visibility Wind Speed Wind Dir Waves Ship Positions

Loodiep

Last reported at 2017-Mar-21 10:07 UTC. Time now 2017-Mar-23 06:12 UTC.
Position N 59°59' E 026°19'.

Length 108 m; draft 7.2 m.

Type: Cargo ship. MMSI: 636015263.

Date/timePositionNaut miles runAvg speedWind from/ knotsBaromVisibWave heightAir tempDewpointWater temp
2017-Mar-21 10:07N 59°59' E 026°19'610.1
2017-Mar-21 09:33N 60°01' E 026°30'1010.2
2017-Mar-21 08:33N 60°00' E 026°51'30 9.9
2017-Mar-21 05:33N 60°12' E 027°46'1010.3
2017-Mar-21 04:33N 60°10' E 028°06'9 9.3
2017-Mar-21 03:33N 60°06' E 028°23'38 9.2
2017-Mar-20 23:28N 60°00' E 029°37'9 9.5
2017-Mar-20 22:33N 59°57' E 029°53'9 9.2
2017-Mar-20 21:33N 59°53' E 030°10'3 2.8
2017-Mar-20 20:32N 59°55' E 030°15'0 0.0
2017-Mar-20 19:32N 59°55' E 030°15'0 0.0
2017-Mar-20 18:32N 59°55' E 030°15'0 0.0
2017-Mar-20 17:32N 59°55' E 030°15'0 0.0
2017-Mar-20 16:32N 59°55' E 030°15'0 0.0
2017-Mar-20 15:32N 59°55' E 030°15'0 0.0
2017-Mar-20 14:32N 59°55' E 030°15'0 0.0
2017-Mar-20 13:32N 59°55' E 030°15'0 0.0
2017-Mar-20 12:32N 59°55' E 030°15'0 0.0
2017-Mar-20 11:32N 59°55' E 030°15'0 0.0
2017-Mar-20 10:29N 59°55' E 030°15'0 0.0
2017-Mar-20 09:32N 59°55' E 030°15'0 0.0
2017-Mar-20 08:32N 59°55' E 030°15'0 0.0
2017-Mar-20 07:32N 59°55' E 030°15'0 0.0
2017-Mar-20 06:32N 59°55' E 030°15'0 0.0
2017-Mar-20 05:32N 59°55' E 030°15'0 0.0
2017-Mar-20 04:32N 59°55' E 030°15'0 0.0
2017-Mar-20 03:32N 59°55' E 030°15'0 0.0
2017-Mar-20 02:32N 59°55' E 030°15'0 0.0
2017-Mar-20 01:32N 59°55' E 030°15'0 0.0
2017-Mar-20 00:32N 59°55' E 030°15'0 0.0
2017-Mar-19 23:32N 59°55' E 030°15'0 0.0
2017-Mar-19 22:32N 59°55' E 030°15'0 0.0
2017-Mar-19 21:32N 59°55' E 030°15'0 0.0
2017-Mar-19 20:32N 59°55' E 030°15'0 0.0
2017-Mar-19 19:32N 59°55' E 030°15'0 0.0
2017-Mar-19 18:32N 59°55' E 030°15'0 0.0
2017-Mar-19 17:32N 59°55' E 030°15'0 0.0
2017-Mar-19 16:32N 59°55' E 030°15'0 0.0
2017-Mar-19 15:32N 59°55' E 030°15'0 0.0
2017-Mar-19 14:32N 59°55' E 030°15'0 0.0
2017-Mar-19 13:32N 59°55' E 030°15'0 0.0
2017-Mar-19 12:32N 59°55' E 030°15'0 0.0
2017-Mar-19 11:32N 59°55' E 030°15'0 0.0
2017-Mar-19 10:32N 59°55' E 030°15'0 0.0
2017-Mar-19 09:32N 59°55' E 030°15'0 0.0
2017-Mar-19 08:29N 59°55' E 030°15'0 0.0
2017-Mar-19 07:32N 59°55' E 030°15'0 0.0
2017-Mar-19 06:32N 59°55' E 030°15'0 0.0
2017-Mar-19 05:32N 59°55' E 030°15'0 0.0
2017-Mar-19 04:32N 59°55' E 030°15'0 0.0
2017-Mar-19 03:32N 59°55' E 030°15'0 0.0
2017-Mar-19 02:32N 59°55' E 030°15'0 0.0
2017-Mar-19 01:32N 59°55' E 030°15'0 0.0
2017-Mar-19 00:32N 59°55' E 030°15'0 0.0
2017-Mar-18 23:32N 59°55' E 030°15'0 0.0
2017-Mar-18 22:32N 59°55' E 030°15'0 0.0
2017-Mar-18 21:32N 59°55' E 030°15'0 0.0
2017-Mar-18 20:32N 59°55' E 030°15'0 0.0
2017-Mar-18 19:32N 59°55' E 030°15'0 0.0
2017-Mar-18 18:32N 59°55' E 030°15'0 0.0
2017-Mar-18 17:32N 59°55' E 030°15'0 0.0
2017-Mar-18 16:32N 59°55' E 030°15'0 0.0
2017-Mar-18 15:32N 59°55' E 030°15'0 0.0
2017-Mar-18 14:32N 59°55' E 030°15'0 0.0
2017-Mar-18 13:32N 59°55' E 030°15'0 0.0
2017-Mar-18 12:32N 59°55' E 030°15'0 0.0
2017-Mar-18 11:32N 59°55' E 030°15'0 0.0
2017-Mar-18 10:32N 59°55' E 030°15'0 0.0
2017-Mar-18 09:32N 59°55' E 030°15'0 0.0
2017-Mar-18 08:32N 59°55' E 030°15'0 0.0
2017-Mar-18 07:32N 59°55' E 030°15'0 0.0
2017-Mar-18 06:32N 59°55' E 030°15'0 0.0
2017-Mar-18 05:32N 59°55' E 030°15'0 0.0
2017-Mar-18 04:32N 59°55' E 030°15'0 0.0
2017-Mar-18 03:32N 59°55' E 030°15'0 0.0
2017-Mar-18 02:32N 59°55' E 030°15'0 0.0
2017-Mar-18 01:32N 59°55' E 030°15'0 0.0
2017-Mar-18 00:32N 59°55' E 030°15'0 0.0
2017-Mar-17 23:32N 59°55' E 030°15'0 0.0
2017-Mar-17 22:32N 59°55' E 030°15'0 0.0
2017-Mar-17 21:32N 59°55' E 030°15'2 1.6
2017-Mar-17 20:32N 59°54' E 030°13'0 0.0
2017-Mar-17 19:32N 59°54' E 030°13'0 0.0
2017-Mar-17 18:32N 59°54' E 030°13'0 0.0
2017-Mar-17 17:32N 59°54' E 030°13'0 0.0
2017-Mar-17 16:32N 59°54' E 030°13'0 0.0
2017-Mar-17 15:32N 59°54' E 030°13'0 0.0
2017-Mar-17 14:32N 59°54' E 030°13'0 0.0
2017-Mar-17 13:32N 59°54' E 030°13'0 0.0
2017-Mar-17 12:32N 59°54' E 030°13'0 0.0
2017-Mar-17 11:26N 59°54' E 030°13'0 0.0
2017-Mar-17 10:32N 59°54' E 030°13'0 0.0
2017-Mar-17 09:32N 59°54' E 030°13'0 0.0
2017-Mar-17 08:32N 59°54' E 030°13'0 0.0
2017-Mar-17 07:32N 59°54' E 030°13'0 0.0
2017-Mar-17 06:32N 59°54' E 030°13'0 0.0
2017-Mar-17 05:32N 59°54' E 030°13'0 0.0
2017-Mar-17 04:32N 59°54' E 030°13'0 0.0
2017-Mar-17 03:32N 59°54' E 030°13'0 0.0
2017-Mar-17 02:32N 59°54' E 030°13'0 0.0
2017-Mar-17 01:32N 59°54' E 030°13'0 0.0
2017-Mar-17 00:32N 59°54' E 030°13'0 0.0
2017-Mar-16 23:32N 59°54' E 030°13'0 0.0
2017-Mar-16 22:32N 59°54' E 030°13'0 0.0
2017-Mar-16 21:29N 59°54' E 030°13'0 0.0
2017-Mar-16 20:29N 59°54' E 030°13'0 0.0
2017-Mar-16 19:32N 59°54' E 030°13'0 0.0
2017-Mar-16 18:32N 59°54' E 030°13'0 0.0
2017-Mar-16 17:32N 59°54' E 030°13'0 0.0
2017-Mar-16 16:32N 59°54' E 030°13'1 1.5
2017-Mar-16 15:33N 59°53' E 030°10'9 8.5
2017-Mar-16 14:33N 59°57' E 029°54'23 1.1
2017-Mar-15 18:10N 60°02' E 029°09'610.2
2017-Mar-15 17:33N 60°02' E 028°57'1110.7
2017-Mar-15 16:33N 60°02' E 028°35'1010.1
2017-Mar-15 15:33N 60°06' E 028°17'9 8.9
2017-Mar-15 14:34N 60°08' E 027°59'7 6.6
2017-Mar-15 13:34N 60°09' E 027°46'10 9.9
2017-Mar-15 12:33N 60°05' E 027°28'31 9.7
2017-Mar-15 09:18N 59°58' E 026°27'349 9.7
2017-Mar-13 21:33N 56°26' E 017°40'1010.3
2017-Mar-13 20:34N 56°20' E 017°26'1010.4
2017-Mar-13 19:34N 56°14' E 017°11'1010.4
2017-Mar-13 18:34N 56°07' E 016°57'1010.3
2017-Mar-13 17:33N 56°01' E 016°42'1010.2
2017-Mar-13 16:34N 55°56' E 016°26'1010.0
2017-Mar-13 15:34N 55°51' E 016°10'10 9.8
2017-Mar-13 14:34N 55°47' E 015°55'11 9.9
2017-Mar-13 13:29N 55°42' E 015°38'9 9.8
2017-Mar-13 12:34N 55°37' E 015°24'10 9.9
2017-Mar-13 11:33N 55°33' E 015°09'10 9.7
2017-Mar-13 10:34N 55°28' E 014°54'1 0.5
2017-Mar-13 09:18N 55°28' E 014°55'7 8.9
2017-Mar-13 08:33N 55°24' E 014°45'1010.4
2017-Mar-13 07:34N 55°18' E 014°31'1010.3
2017-Mar-13 06:33N 55°10' E 014°20'1110.6
2017-Mar-13 05:33N 55°01' E 014°08'1010.1
2017-Mar-13 04:33N 54°58' E 013°51'1010.2
2017-Mar-13 03:32N 54°55' E 013°34'1010.2
2017-Mar-13 02:33N 54°52' E 013°18'2010.1
2017-Mar-13 00:33N 54°45' E 012°44'10 9.9
2017-Mar-12 23:33N 54°40' E 012°30'9 9.4
2017-Mar-12 22:33N 54°34' E 012°18'9 9.5
2017-Mar-12 21:33N 54°25' E 012°10'9 8.6
2017-Mar-12 20:33N 54°24' E 011°56'12 8.9
2017-Mar-12 19:16N 54°27' E 011°36'6 9.2
2017-Mar-12 18:33N 54°30' E 011°26'8 8.4
2017-Mar-12 17:33N 54°34' E 011°13'11 8.5
2017-Mar-12 16:17N 54°35' E 010°55'7 9.5
2017-Mar-12 15:33N 54°34' E 010°43'11 9.5
2017-Mar-12 14:27N 54°31' E 010°25'49 6.2
2017-Mar-12 06:33N 54°02' E 009°18'8 7.6
2017-Mar-12 05:33N 53°55' E 009°12'3 2.7
2017-Mar-12 04:33N 53°54' E 009°09'2 1.8
2017-Mar-12 03:33N 53°53' E 009°06'5 5.0
2017-Mar-12 02:33N 53°51' E 008°58'9 8.7
2017-Mar-12 01:33N 53°52' E 008°44'9 8.8
2017-Mar-12 00:33N 53°58' E 008°33'9 9.5
2017-Mar-11 23:33N 53°60' E 008°17'9 9.1
2017-Mar-11 22:31N 53°58' E 008°01'9410.4
2017-Mar-11 13:33N 53°34' E 005°28'9 8.7
2017-Mar-11 12:33N 53°32' E 005°14'9 8.8
2017-Mar-11 11:32N 53°28' E 004°60'9 9.3
2017-Mar-11 10:33N 53°25' E 004°46'  

Dump ship's entire track history